createdAt,value
2018-05-19T00:01:55.422Z,14.17
2018-05-19T00:04:23.792Z,14.21
2018-05-19T00:06:52.802Z,13.97
2018-05-19T00:09:21.301Z,13.91
2018-05-19T00:11:49.585Z,13.89
2018-05-19T00:14:17.908Z,13.59
2018-05-19T00:16:46.213Z,13.67
2018-05-19T00:19:14.522Z,13.66
2018-05-19T00:21:42.868Z,13.64
2018-05-19T00:24:11.171Z,13.63
2018-05-19T00:26:39.514Z,13.55
2018-05-19T00:29:07.802Z,13.47
2018-05-19T00:31:36.106Z,13.45
2018-05-19T00:34:05.242Z,13.25
2018-05-19T00:36:33.553Z,13.62
2018-05-19T00:39:01.863Z,13.57
2018-05-19T00:41:30.153Z,13.63
2018-05-19T00:43:58.451Z,13.51
2018-05-19T00:46:26.753Z,13.43
2018-05-19T00:48:55.071Z,13.36
2018-05-19T00:51:23.389Z,13.24
2018-05-19T00:53:52.199Z,13.32
2018-05-19T00:56:20.502Z,13.35
2018-05-19T00:58:48.783Z,13.22
2018-05-19T01:01:17.076Z,13.20
2018-05-19T01:03:45.354Z,13.09
2018-05-19T01:06:13.691Z,12.99
2018-05-19T01:08:42.104Z,12.97
2018-05-19T01:11:10.407Z,13.07
2018-05-19T01:13:38.713Z,13.05
2018-05-19T01:16:07.025Z,12.92
2018-05-19T01:18:35.334Z,12.83
2018-05-19T01:21:03.853Z,12.98
2018-05-19T01:23:32.195Z,12.83
2018-05-19T01:26:00.461Z,12.87
2018-05-19T01:28:28.780Z,12.81
2018-05-19T01:30:57.108Z,12.79
2018-05-19T01:33:25.422Z,12.68
2018-05-19T01:35:54.926Z,12.49
2018-05-19T01:38:24.679Z,12.44
2018-05-19T01:40:52.975Z,12.43
2018-05-19T01:43:21.283Z,12.40
2018-05-19T01:45:49.571Z,12.37
2018-05-19T01:48:17.870Z,12.55
2018-05-19T01:50:46.143Z,12.64
2018-05-19T01:53:14.466Z,12.53
2018-05-19T01:55:42.778Z,12.46
2018-05-19T01:58:11.178Z,12.53
2018-05-19T02:00:39.461Z,12.39
2018-05-19T02:03:07.773Z,12.31
2018-05-19T02:05:36.060Z,12.30
2018-05-19T02:08:04.976Z,12.25
2018-05-19T02:10:33.259Z,12.32
2018-05-19T02:13:01.589Z,12.48
2018-05-19T02:15:29.873Z,12.42
2018-05-19T02:17:59.033Z,12.17
2018-05-19T02:20:28.893Z,12.13
2018-05-19T02:22:57.226Z,12.02
2018-05-19T02:25:26.114Z,11.87
2018-05-19T02:27:54.397Z,11.79
2018-05-19T02:30:23.010Z,11.96
2018-05-19T02:32:51.285Z,11.83
2018-05-19T02:35:19.637Z,11.85
2018-05-19T02:37:47.958Z,12.00
2018-05-19T02:40:16.442Z,11.84
2018-05-19T02:42:45.524Z,11.72
2018-05-19T02:45:13.812Z,11.55
2018-05-19T02:47:42.087Z,11.53
2018-05-19T02:50:10.383Z,11.43
2018-05-19T02:52:38.658Z,11.51
2018-05-19T02:55:06.993Z,11.49
2018-05-19T02:57:35.390Z,11.50
2018-05-19T03:00:04.075Z,11.47
2018-05-19T03:02:32.358Z,11.45
2018-05-19T03:05:00.654Z,11.59
2018-05-19T03:07:29.446Z,11.49
2018-05-19T03:09:57.778Z,11.38
2018-05-19T03:12:26.079Z,11.54
2018-05-19T03:14:54.467Z,11.55
2018-05-19T03:17:23.134Z,11.58
2018-05-19T03:19:51.433Z,11.52
2018-05-19T03:22:19.706Z,11.55
2018-05-19T03:24:48.002Z,11.43
2018-05-19T03:27:16.316Z,11.31
2018-05-19T03:29:44.609Z,11.38
2018-05-19T03:32:12.963Z,11.48
2018-05-19T03:34:41.268Z,11.40
2018-05-19T03:37:09.951Z,11.39
2018-05-19T03:39:38.242Z,11.31
2018-05-19T03:42:06.545Z,11.28
2018-05-19T03:44:34.914Z,11.16
2018-05-19T03:47:03.249Z,11.10
2018-05-19T03:49:31.556Z,11.20
2018-05-19T03:51:59.881Z,11.13
2018-05-19T03:54:29.035Z,11.04
2018-05-19T03:57:09.164Z,11.04
2018-05-19T03:59:49.116Z,11.03
2018-05-19T04:02:29.139Z,10.95
2018-05-19T04:04:57.515Z,11.05
2018-05-19T04:07:25.808Z,10.98
2018-05-19T04:09:54.100Z,10.95
2018-05-19T04:12:22.383Z,11.07
2018-05-19T04:14:50.734Z,11.09
2018-05-19T04:17:19.508Z,11.21
2018-05-19T04:19:47.823Z,11.22
2018-05-19T04:22:16.124Z,11.20
2018-05-19T04:24:44.416Z,11.16
2018-05-19T04:27:12.690Z,11.30
2018-05-19T04:29:41.025Z,11.34
2018-05-19T04:32:09.310Z,11.37
2018-05-19T04:34:37.658Z,11.26
2018-05-19T04:37:05.958Z,11.35
2018-05-19T04:39:34.246Z,11.45
2018-05-19T04:42:02.518Z,11.71
2018-05-19T04:44:30.911Z,11.82
2018-05-19T04:46:59.231Z,11.68
2018-05-19T04:49:27.546Z,11.72
2018-05-19T04:51:55.821Z,11.66
2018-05-19T04:54:24.214Z,11.56
2018-05-19T04:56:52.624Z,11.63
2018-05-19T04:59:20.941Z,11.76
2018-05-19T05:01:49.280Z,11.72
2018-05-19T05:04:17.606Z,11.66
2018-05-19T05:06:45.914Z,11.75
2018-05-19T05:09:14.208Z,11.84
2018-05-19T05:11:42.502Z,11.88
2018-05-19T06:59:06.944Z,16.32
2018-05-19T07:01:35.339Z,16.44
2018-05-19T07:04:04.746Z,16.41
2018-05-19T07:06:33.050Z,16.48
2018-05-19T07:09:01.354Z,16.48
2018-05-19T07:11:29.628Z,16.48
2018-05-19T07:13:57.970Z,16.43
2018-05-19T07:16:27.221Z,16.33
2018-05-19T07:18:55.570Z,16.33
2018-05-19T07:21:23.899Z,16.43
2018-05-19T07:23:52.193Z,16.66
2018-05-19T07:26:20.500Z,16.52
2018-05-19T07:28:48.766Z,16.69
2018-05-19T07:31:17.128Z,16.89
2018-05-19T07:33:45.708Z,17.08
2018-05-19T07:36:14.016Z,17.19
2018-05-19T07:38:42.354Z,17.21
2018-05-19T07:41:10.648Z,17.37
2018-05-19T07:43:38.970Z,17.53
2018-05-19T07:46:07.285Z,17.55
2018-05-19T07:48:35.589Z,17.76
2018-05-19T07:51:03.889Z,17.67
2018-05-19T07:53:32.370Z,17.44
2018-05-19T07:56:00.689Z,17.21
2018-05-19T07:58:28.986Z,17.43
2018-05-19T08:00:57.274Z,17.58
2018-05-19T08:03:25.642Z,17.72
2018-05-19T08:05:55.328Z,17.68
2018-05-19T08:08:23.637Z,17.63
2018-05-19T08:10:51.954Z,17.74
2018-05-19T08:13:20.284Z,17.93
2018-05-19T08:15:49.319Z,17.68
2018-05-19T08:18:18.543Z,17.70
2018-05-19T08:20:46.848Z,17.49
2018-05-19T08:23:15.130Z,17.69
2018-05-19T08:25:43.470Z,17.65
2018-05-19T08:28:12.590Z,17.40
2018-05-19T08:30:41.663Z,17.71
2018-05-19T08:33:09.946Z,18.00
2018-05-19T08:35:38.755Z,18.13
2018-05-19T08:38:07.134Z,18.16
2018-05-19T08:40:35.802Z,18.26
2018-05-19T08:43:04.072Z,18.11
2018-05-19T08:45:32.374Z,18.18
2018-05-19T08:48:00.678Z,18.28
2018-05-19T08:50:29.105Z,18.32
2018-05-19T08:52:57.325Z,18.38
2018-05-19T08:55:25.643Z,18.10
2018-05-19T08:57:53.950Z,17.91
2018-05-19T09:00:22.251Z,17.94
2018-05-19T09:02:50.737Z,18.17
2018-05-19T09:05:19.002Z,18.39
2018-05-19T09:07:47.471Z,18.61
2018-05-19T09:10:15.759Z,18.66
2018-05-19T09:12:44.085Z,18.70
2018-05-19T09:15:12.354Z,18.82
2018-05-19T09:17:40.687Z,18.84
2018-05-19T09:20:09.009Z,18.58
2018-05-19T09:22:37.334Z,18.40
2018-05-19T09:25:05.611Z,18.57
2018-05-19T09:27:33.905Z,18.42
2018-05-19T09:30:02.196Z,18.69
2018-05-19T09:32:30.719Z,18.85
2018-05-19T09:34:59.025Z,19.08
2018-05-19T09:37:27.317Z,19.30
2018-05-19T09:39:55.622Z,19.38
2018-05-19T09:42:23.961Z,19.48
2018-05-19T09:44:52.231Z,19.45
2018-05-19T09:47:20.534Z,19.05
2018-05-19T09:49:48.817Z,18.85
2018-05-19T09:52:17.203Z,18.78
2018-05-19T09:54:45.831Z,19.20
2018-05-19T09:57:15.046Z,19.39
2018-05-19T09:59:44.253Z,19.37
2018-05-19T10:02:12.526Z,19.65
2018-05-19T10:04:40.830Z,19.77
2018-05-19T10:07:09.106Z,19.22
2018-05-19T10:09:37.399Z,19.37
2018-05-19T10:12:05.733Z,19.75
2018-05-19T10:14:34.250Z,19.54
2018-05-19T10:17:03.158Z,19.89
2018-05-19T10:19:31.582Z,19.92
2018-05-19T10:21:59.894Z,19.95
2018-05-19T10:24:28.152Z,19.59
2018-05-19T10:26:56.458Z,19.61
2018-05-19T10:29:24.766Z,19.94
2018-05-19T10:31:53.031Z,19.70
2018-05-19T10:34:21.337Z,20.00
2018-05-19T10:36:49.650Z,20.05
2018-05-19T10:39:17.916Z,20.03
2018-05-19T10:41:46.228Z,20.15
2018-05-19T10:44:14.942Z,20.09
2018-05-19T10:46:43.263Z,20.30
2018-05-19T10:49:11.765Z,20.57
2018-05-19T10:51:40.084Z,20.41
2018-05-19T10:54:08.986Z,20.27
2018-05-19T10:56:38.138Z,20.44
2018-05-19T10:59:07.107Z,20.39
2018-05-19T11:01:35.406Z,20.79
2018-05-19T11:04:03.717Z,21.12
2018-05-19T11:06:32.412Z,21.13
2018-05-19T11:09:00.704Z,20.87
2018-05-19T11:11:29.042Z,21.23
2018-05-19T11:13:57.239Z,21.62
2018-05-19T11:16:25.566Z,21.80
2018-05-19T11:18:53.852Z,21.84
2018-05-19T11:21:22.255Z,21.68
2018-05-19T11:23:50.645Z,21.81
2018-05-19T11:26:18.913Z,22.06
2018-05-19T11:28:47.191Z,21.60
2018-05-19T11:31:16.293Z,21.75
2018-05-19T11:33:44.712Z,21.74
2018-05-19T11:36:13.327Z,21.58
2018-05-19T11:38:41.641Z,22.01
2018-05-19T11:41:09.910Z,22.19
2018-05-19T11:43:38.390Z,22.33
2018-05-19T11:46:07.540Z,22.43
2018-05-19T11:48:35.826Z,22.37
2018-05-19T11:51:04.106Z,22.48
2018-05-19T11:53:32.897Z,22.55
2018-05-19T11:56:01.158Z,22.51
2018-05-19T11:58:30.322Z,22.35
2018-05-19T12:00:58.578Z,22.36
2018-05-19T12:03:26.893Z,22.15
2018-05-19T12:05:55.439Z,21.28
2018-05-19T12:08:24.522Z,21.33
2018-05-19T12:10:52.969Z,21.56
2018-05-19T12:13:21.243Z,21.45
2018-05-19T12:15:49.543Z,21.69
2018-05-19T12:18:17.845Z,21.46
2018-05-19T12:20:46.138Z,20.74
2018-05-19T12:23:14.691Z,20.78
2018-05-19T12:25:42.983Z,21.13
2018-05-19T12:28:11.247Z,21.11
2018-05-19T12:30:39.543Z,21.53
2018-05-19T12:33:07.802Z,21.91
2018-05-19T12:35:37.191Z,22.29
2018-05-19T12:38:05.476Z,22.19
2018-05-19T12:40:34.444Z,22.61
2018-05-19T12:43:02.702Z,22.83
2018-05-19T12:45:31.031Z,22.92
2018-05-19T12:47:59.371Z,22.81
2018-05-19T12:50:27.684Z,23.18
2018-05-19T12:52:55.938Z,23.35
2018-05-19T12:55:24.225Z,23.76
2018-05-19T12:57:52.484Z,23.94
2018-05-19T13:00:20.779Z,24.19
2018-05-19T13:02:49.071Z,23.46
2018-05-19T13:05:17.374Z,23.21
2018-05-19T13:07:45.631Z,22.90
2018-05-19T13:10:13.976Z,22.99
2018-05-19T13:12:42.456Z,22.86
2018-05-19T13:15:10.806Z,23.47
2018-05-19T13:17:39.097Z,23.90
2018-05-19T13:20:07.362Z,23.57
2018-05-19T13:22:35.650Z,23.36
2018-05-19T13:25:04.746Z,23.14
2018-05-19T13:27:33.012Z,23.73
2018-05-19T13:30:01.285Z,24.46
2018-05-19T13:32:29.595Z,24.54
2018-05-19T13:34:57.885Z,23.96
2018-05-19T13:37:27.108Z,24.40
2018-05-19T13:39:55.362Z,24.03
2018-05-19T13:42:23.649Z,24.52
2018-05-19T13:44:51.915Z,24.90
2018-05-19T13:47:21.279Z,24.60
2018-05-19T13:49:49.560Z,24.07
2018-05-19T13:52:17.852Z,24.45
2018-05-19T13:54:46.911Z,24.13
2018-05-19T13:57:15.261Z,23.81
2018-05-19T13:59:43.581Z,23.27
2018-05-19T14:02:11.922Z,23.64
2018-05-19T14:04:40.296Z,24.29
2018-05-19T14:07:08.525Z,24.31
2018-05-19T14:09:36.878Z,23.89
2018-05-19T14:12:05.241Z,24.25
2018-05-19T14:14:33.465Z,24.07
2018-05-19T14:17:02.708Z,24.39
2018-05-19T14:19:31.015Z,24.81
2018-05-19T14:21:59.297Z,25.45
2018-05-19T14:24:28.309Z,25.65
2018-05-19T14:26:56.569Z,25.24
2018-05-19T14:29:24.860Z,25.46
2018-05-19T14:31:53.126Z,26.10
2018-05-19T14:34:21.434Z,26.20
2018-05-19T14:36:49.707Z,26.17
2018-05-19T14:39:17.994Z,26.40
2018-05-19T14:41:46.245Z,26.79
2018-05-19T14:44:14.894Z,26.58
2018-05-19T14:46:43.220Z,25.23
2018-05-19T14:49:11.484Z,25.63
2018-05-19T14:51:39.771Z,26.24
2018-05-19T14:54:08.025Z,25.40
2018-05-19T14:56:36.347Z,25.48
2018-05-19T14:59:05.110Z,25.87
2018-05-19T15:01:33.410Z,26.27
2018-05-19T15:04:01.772Z,26.26
2018-05-19T15:06:30.078Z,26.31
2018-05-19T15:08:58.369Z,25.80
2018-05-19T15:11:26.647Z,25.25
2018-05-19T15:13:54.958Z,26.18
2018-05-19T15:16:23.255Z,25.46
2018-05-19T15:18:51.533Z,25.21
2018-05-19T15:21:20.190Z,26.12
2018-05-19T15:23:48.473Z,26.66
2018-05-19T15:26:16.750Z,27.01
2018-05-19T15:28:45.019Z,27.29
2018-05-19T15:31:13.439Z,27.40
2018-05-19T15:33:41.722Z,27.13
2018-05-19T15:36:09.993Z,26.86
2018-05-19T15:38:38.328Z,26.85
2018-05-19T15:41:07.308Z,27.29
2018-05-19T15:43:35.621Z,27.05
2018-05-19T15:46:03.999Z,27.20
2018-05-19T15:48:32.303Z,27.58
2018-05-19T15:51:00.574Z,28.04
2018-05-19T15:53:29.616Z,28.24
2018-05-19T15:55:58.279Z,27.24
2018-05-19T15:58:26.586Z,27.30
2018-05-19T16:00:54.854Z,26.70
2018-05-19T16:03:23.163Z,27.02
2018-05-19T16:05:51.453Z,27.68
2018-05-19T16:08:19.751Z,27.99
2018-05-19T16:10:48.026Z,27.53
2018-05-19T16:13:16.314Z,27.63
2018-05-19T16:15:44.582Z,28.11
2018-05-19T16:18:13.230Z,28.20
2018-05-19T16:20:41.525Z,27.99
2018-05-19T16:23:09.823Z,27.49
2018-05-19T16:25:38.066Z,27.33
2018-05-19T16:28:06.847Z,27.87
2018-05-19T16:30:35.773Z,28.36
2018-05-19T16:33:04.053Z,28.57
2018-05-19T16:35:32.335Z,28.80
2018-05-19T16:38:00.630Z,28.94
2018-05-19T16:40:28.924Z,28.02
2018-05-19T16:42:57.185Z,26.93
2018-05-19T16:45:25.498Z,27.45
2018-05-19T16:47:53.802Z,27.86
2018-05-19T16:50:22.836Z,26.88
2018-05-19T16:52:51.087Z,27.16
2018-05-19T16:55:19.434Z,26.45
2018-05-19T16:57:48.484Z,26.24
2018-05-19T17:00:16.848Z,26.53
2018-05-19T17:02:45.034Z,26.20
2018-05-19T17:05:13.380Z,26.16
2018-05-19T17:07:41.673Z,25.82
2018-05-19T17:10:10.874Z,25.66
2018-05-19T17:12:39.152Z,24.84
2018-05-19T17:15:07.747Z,24.30
2018-05-19T17:17:35.994Z,24.57
2018-05-19T17:20:04.349Z,24.11
2018-05-19T17:22:33.194Z,23.52
2018-05-19T17:25:01.474Z,23.43
2018-05-19T17:27:29.771Z,23.76
2018-05-19T17:29:58.025Z,24.05
2018-05-19T17:32:26.339Z,23.97
2018-05-19T17:34:54.609Z,23.98
2018-05-19T17:37:23.202Z,23.68
2018-05-19T17:39:51.460Z,23.93
2018-05-19T17:42:19.738Z,23.92
2018-05-19T17:44:47.999Z,23.88
2018-05-19T17:47:16.303Z,23.74
2018-05-19T17:49:44.554Z,23.76
2018-05-19T17:52:12.884Z,23.82
2018-05-19T17:54:41.162Z,23.85
2018-05-19T17:57:09.503Z,23.50
2018-05-19T17:59:37.746Z,23.74
2018-05-19T18:02:06.523Z,23.58
2018-05-19T18:04:34.793Z,23.41
2018-05-19T18:07:03.101Z,23.32
2018-05-19T18:09:31.347Z,23.36
2018-05-19T18:11:59.770Z,23.32
2018-05-19T18:14:28.028Z,23.47
2018-05-19T18:16:56.358Z,23.49
2018-05-19T18:19:24.629Z,23.28
2018-05-19T18:21:53.706Z,23.18
2018-05-19T18:24:22.016Z,23.15
2018-05-19T18:26:50.675Z,23.12
2018-05-19T18:29:19.764Z,22.94
2018-05-19T18:31:48.060Z,22.80
2018-05-19T18:34:16.356Z,22.79
2018-05-19T18:36:44.613Z,22.73
2018-05-19T18:39:12.907Z,22.74
2018-05-19T18:41:41.159Z,22.61
2018-05-19T18:44:09.462Z,22.56
2018-05-19T18:46:37.905Z,22.62
2018-05-19T18:49:06.168Z,22.60
2018-05-19T18:51:34.462Z,22.64
2018-05-19T18:54:02.836Z,22.69
2018-05-19T18:56:31.098Z,22.69
2018-05-19T18:59:00.310Z,22.53
2018-05-19T19:01:29.358Z,22.44
2018-05-19T19:03:57.666Z,22.33
2018-05-19T19:06:25.928Z,22.23
2018-05-19T19:08:54.217Z,22.19
2018-05-19T19:11:22.551Z,22.19
2018-05-19T19:13:50.778Z,22.15
2018-05-19T19:16:19.070Z,22.06
2018-05-19T19:18:47.333Z,22.00
2018-05-19T19:21:15.605Z,22.04
2018-05-19T19:23:44.645Z,22.12
2018-05-19T19:26:12.940Z,21.90
2018-05-19T19:28:41.210Z,21.91
2018-05-19T19:31:09.519Z,21.93
2018-05-19T19:33:37.814Z,21.81
2018-05-19T19:36:06.093Z,21.60
2018-05-19T19:38:34.855Z,21.37
2018-05-19T19:41:03.107Z,21.35
2018-05-19T19:43:31.428Z,21.28
2018-05-19T19:46:00.247Z,21.22
2018-05-19T19:48:28.505Z,21.26
2018-05-19T19:50:56.767Z,21.22
2018-05-19T19:53:25.051Z,21.12
2018-05-19T19:55:53.328Z,20.92
2018-05-19T19:58:21.665Z,21.02
2018-05-19T20:00:49.916Z,20.88
2018-05-19T20:03:18.217Z,20.75
2018-05-19T20:05:46.510Z,20.60
2018-05-19T20:08:14.809Z,20.55
2018-05-19T20:10:43.077Z,20.51
2018-05-19T20:13:11.756Z,20.44
2018-05-19T20:15:43.059Z,20.23
2018-05-19T20:18:11.371Z,20.30
2018-05-19T20:20:39.624Z,20.10
2018-05-19T20:23:09.273Z,19.89
2018-05-19T20:25:39.678Z,19.71
2018-05-19T20:28:07.962Z,19.58
2018-05-19T20:30:36.237Z,19.46
2018-05-19T20:33:04.552Z,19.20
2018-05-19T20:35:32.898Z,19.28
2018-05-19T20:38:01.286Z,19.31
2018-05-19T20:40:29.704Z,19.32
2018-05-19T20:42:58.072Z,19.15
2018-05-19T20:45:26.425Z,19.10
2018-05-19T20:47:54.690Z,18.94
2018-05-19T20:50:23.052Z,18.61
2018-05-19T20:52:51.337Z,18.55
2018-05-19T20:55:19.618Z,18.54
2018-05-19T20:57:48.043Z,18.50
2018-05-19T21:00:16.390Z,18.43
2018-05-19T21:02:44.641Z,18.43
2018-05-19T21:05:12.939Z,18.48
2018-05-19T21:07:41.271Z,18.50
2018-05-19T21:10:09.983Z,18.46
2018-05-19T21:12:38.298Z,18.38
2018-05-19T21:15:06.616Z,18.26
2018-05-19T21:17:35.382Z,18.25
2018-05-19T21:20:03.815Z,18.12
2018-05-19T21:22:32.131Z,18.27
2018-05-19T21:25:00.487Z,18.23
2018-05-19T21:27:28.870Z,18.12
2018-05-19T21:29:57.274Z,17.87
2018-05-19T21:32:25.918Z,17.80
2018-05-19T21:34:54.232Z,17.66
2018-05-19T21:37:24.206Z,17.61
2018-05-19T21:39:52.895Z,17.50
2018-05-19T21:42:21.174Z,17.47
2018-05-19T21:44:49.496Z,17.40
2018-05-19T21:47:17.850Z,17.16
2018-05-19T21:49:46.649Z,17.08
2018-05-19T21:52:15.749Z,17.09
2018-05-19T21:54:44.068Z,17.06
2018-05-19T21:57:12.456Z,17.02
2018-05-19T21:59:41.657Z,16.97
2018-05-19T22:02:10.119Z,16.98
2018-05-19T22:04:38.374Z,16.92
2018-05-19T22:07:06.675Z,16.68
2018-05-19T22:09:40.006Z,16.64
2018-05-19T22:12:08.334Z,16.57
2018-05-19T22:14:36.601Z,16.25
2018-05-19T22:17:04.895Z,16.29
2018-05-19T22:19:33.164Z,16.33
2018-05-19T22:22:01.453Z,16.29
2018-05-19T22:24:29.899Z,16.24
2018-05-19T22:26:58.207Z,16.28
2018-05-19T22:29:26.459Z,16.42
2018-05-19T22:31:54.809Z,16.49
2018-05-19T22:34:23.099Z,16.49
2018-05-19T22:36:51.370Z,16.54
2018-05-19T22:39:19.688Z,16.51
2018-05-19T22:41:48.237Z,16.49
2018-05-19T22:44:16.487Z,16.45
2018-05-19T22:46:44.990Z,16.39
2018-05-19T22:49:14.278Z,16.45
2018-05-19T22:51:46.156Z,16.34
2018-05-19T22:54:14.737Z,16.33
2018-05-19T22:56:43.228Z,16.38
2018-05-19T22:59:11.521Z,16.29
2018-05-19T23:01:39.834Z,16.35
2018-05-19T23:04:08.174Z,16.36
2018-05-19T23:06:36.433Z,16.02
2018-05-19T23:09:04.771Z,15.77
2018-05-19T23:11:33.112Z,15.88
2018-05-19T23:14:01.361Z,15.81
2018-05-19T23:16:29.658Z,15.57
2018-05-19T23:18:58.031Z,15.24
2018-05-19T23:21:26.345Z,15.32
2018-05-19T23:23:54.614Z,15.41
2018-05-19T23:26:23.295Z,15.43
2018-05-19T23:28:51.562Z,15.41
2018-05-19T23:31:19.867Z,15.42
2018-05-19T23:33:48.129Z,15.41
2018-05-19T23:36:16.414Z,15.28
2018-05-19T23:38:44.680Z,15.09
2018-05-19T23:41:12.972Z,15.11
2018-05-19T23:43:42.032Z,15.03
2018-05-19T23:46:10.408Z,15.12
2018-05-19T23:48:38.653Z,14.78
2018-05-19T23:51:06.981Z,14.63
2018-05-19T23:53:35.269Z,14.67
2018-05-19T23:56:03.541Z,14.82
2018-05-19T23:58:31.832Z,14.48
